Loudville, Massachusetts
Current Conditions -  °F | °C
As of 2:24 AM on Wednesday 22 Oct 2014 (Local Time) from KBAF Reporting Station
Overcast Overcast  
Wind Chill: 53°   Ceiling: 1000
Heat Index: 53°   Visibility: 10mi
Dew Point: 48°   Wind: 10mph
Humidity: 83%   Direction: 20°NNE
Pressure: 29.97"   Gusts: NA
Location:  42.2952°N, 72.7431°W
Report Text: KBAF 220624Z 02009KT 10SM OVC010 12/09 A2997 RMK AO2 T01170089
Loading
Personal Weather Stations






























Interactive Weather Map
Tropical Storm Tracking
New forecast layout! Learn more

10-Day Weather Forecast

Advertisements
Track Severe Weather on mobile